Time;durP1;ratioP1;P1;durP2;ratioP2;P2;SDS_P1;SDS_P2;PMS_P1;PMS_P2;Temp;Humidity;BMP_temperature;BMP_pressure;BME280_temperature;BME280_humidity;BME280_pressure;Samples;Min_cycle;Max_cycle;Signal;HPM_P1;HPM_P2
2022/10/16 00:00:20;;;;;;;;;;;;;;;-144.99;100.00;52407.31;5076240;28;19924;-75
2022/10/16 00:02:46;;;;;;;;;;;;;;;-144.99;100.00;52450.13;5066310;28;19932;-76
2022/10/16 00:05:12;;;;;;;;;;;;;;;-144.99;100.00;52480.72;5064091;28;19924;-76
2022/10/16 00:07:39;;;;;;;;;;;;;;;-144.99;100.00;52480.72;5064116;28;19931;-74
2022/10/16 00:10:05;;;;;;;;;;;;;;;-144.99;100.00;52439.94;5077337;28;20359;-75
2022/10/16 00:12:32;;;;;;;;;;;;;;;-144.99;100.00;52423.63;5063333;28;19943;-76
2022/10/16 00:14:59;;;;;;;;;;;;;;;-144.99;100.00;52450.13;5061841;28;19935;-75
2022/10/16 00:17:26;;;;;;;;;;;;;;;-144.99;100.00;52448.09;5068187;28;19928;-76
2022/10/16 00:19:52;;;;;;;;;;;;;;;-144.99;100.00;52423.63;5061058;28;19932;-76
2022/10/16 00:22:18;;;;;;;;;;;;;;;-144.99;100.00;52415.47;5065170;28;19929;-75
2022/10/16 00:24:45;;;;;;;;;;;;;;;-144.99;100.00;52474.59;5072402;28;19929;-74
2022/10/16 00:27:11;;;;;;;;;;;;;;;-144.99;100.00;52427.72;5055700;28;19925;-75
2022/10/16 00:29:37;;;;;;;;;;;;;;;-144.99;100.00;52456.25;5061043;28;19925;-75
2022/10/16 00:32:05;;;;;;;;;;;;;;;-144.99;100.00;52423.63;5066177;28;20374;-76
2022/10/16 00:34:32;;;;;;;;;;;;;;;-144.99;100.00;52411.41;5063270;28;19929;-77
2022/10/16 00:36:58;;;;;;;;;;;;;;;-144.99;100.00;52437.91;5069498;28;19925;-74
2022/10/16 00:39:24;;;;;;;;;;;;;;;-144.99;100.00;52415.47;5058988;28;19932;-76
2022/10/16 00:41:51;;;;;;;;;;;;;;;-144.99;100.00;52431.78;5066856;28;20054;-74
2022/10/16 00:44:36;;;;;;;;;;;;;;;-144.99;100.00;52446.06;5067001;28;20434;-73
2022/10/16 00:47:02;;;;;;;;;;;;;;;-144.99;100.00;52403.25;5069892;28;19936;-73
2022/10/16 00:49:30;;;;;;;;;;;;;;;-144.99;100.00;52441.97;5067068;28;19929;-73
2022/10/16 00:51:56;;;;;;;;;;;;;;;-144.99;100.00;52419.56;5080937;28;19942;-74
2022/10/16 00:54:24;;;;;;;;;;;;;;;-144.99;100.00;52452.16;5074012;28;19928;-73
2022/10/16 00:56:50;;;;;;;;;;;;;;;-144.99;100.00;52423.63;5067298;28;19929;-74
2022/10/16 00:59:19;;;;;;;;;;;;;;;-144.99;100.00;52427.72;5063188;28;19929;-73
2022/10/16 01:01:45;;;;;;;;;;;;;;;-144.99;100.00;52413.44;5068127;28;19955;-73
2022/10/16 01:04:11;;;;;;;;;;;;;;;-144.99;100.00;52444.03;5081148;28;19934;-73
2022/10/16 01:06:43;;;;;;;;;;;;;;;-144.99;100.00;52427.72;5070866;28;20408;-73
2022/10/16 01:09:14;;;;;;;;;;;;;;;-144.99;100.00;52456.25;5075595;28;19925;-73
2022/10/16 01:11:45;;;;;;;;;;;;;;;-144.99;100.00;52444.03;5073550;28;20427;-74
2022/10/16 01:14:14;;;;;;;;;;;;;;;-144.99;100.00;52407.31;5074931;28;19932;-74
2022/10/16 01:16:44;;;;;;;;;;;;;;;-144.99;100.00;52399.19;5078335;28;20416;-73
2022/10/16 01:19:14;;;;;;;;;;;;;;;-144.99;100.00;52464.41;5072011;28;19924;-73
2022/10/16 01:21:43;;;;;;;;;;;;;;;-144.99;100.00;52444.03;5064692;28;19929;-74
2022/10/16 01:24:16;;;;;;;;;;;;;;;-144.99;99.84;52450.13;4745786;22;9999887;-77
2022/10/16 01:26:50;;;;;;;;;;;;;;;-144.99;99.75;52458.28;5082089;28;20272;-78
2022/10/16 01:29:19;;;;;;;;;;;;;;;-144.99;100.00;52466.44;5085563;28;20003;-77
2022/10/16 01:31:50;;;;;;;;;;;;;;;-144.99;99.99;52397.13;5086907;28;19928;-82
2022/10/16 01:34:19;;;;;;;;;;;;;;;-144.99;100.00;52460.31;5089478;28;19950;-78
2022/10/16 01:36:48;;;;;;;;;;;;;;;-144.99;100.00;52444.03;5083891;28;20275;-77
2022/10/16 01:39:16;;;;;;;;;;;;;;;-144.99;100.00;52444.03;5079019;28;19967;-77
2022/10/16 01:41:45;;;;;;;;;;;;;;;-144.99;100.00;52437.91;5083417;28;19936;-77
2022/10/16 01:44:14;;;;;;;;;;;;;;;-144.99;100.00;52472.56;5079928;28;20287;-76
2022/10/16 01:46:44;;;;;;;;;;;;;;;-144.99;100.00;52427.72;5078454;28;20439;-76
2022/10/16 01:49:11;;;;;;;;;;;;;;;-144.99;100.00;52439.94;5081743;28;19924;-76
2022/10/16 01:51:38;;;;;;;;;;;;;;;-144.99;100.00;52476.63;5085486;28;20026;-76
2022/10/16 01:54:06;;;;;;;;;;;;;;;-144.99;100.00;52431.78;5087553;28;19924;-76
2022/10/16 01:56:33;;;;;;;;;;;;;;;-144.99;100.00;52460.31;5085153;28;20357;-79
2022/10/16 01:59:01;;;;;;;;;;;;;;;-144.99;100.00;52423.63;5089066;28;20008;-76
2022/10/16 02:01:29;;;;;;;;;;;;;;;-144.99;100.00;52492.94;5077354;28;19932;-75
2022/10/16 02:04:00;;;;;;;;;;;;;;;-144.99;100.00;52456.25;5081940;28;20303;-76
2022/10/16 02:06:26;;;;;;;;;;;;;;;-144.99;100.00;52452.16;5083329;28;20324;-75
2022/10/16 02:08:54;;;;;;;;;;;;;;;-144.99;100.00;52484.78;5079493;28;19932;-78
2022/10/16 02:11:20;;;;;;;;;;;;;;;-144.99;100.00;52431.78;5082686;28;19925;-76
2022/10/16 02:13:49;;;;;;;;;;;;;;;-144.99;100.00;52444.03;5079834;28;19932;-76
2022/10/16 02:16:15;;;;;;;;;;;;;;;-144.99;100.00;52444.03;5083752;28;19930;-79
2022/10/16 02:18:42;;;;;;;;;;;;;;;-144.99;100.00;52478.66;5093198;28;19956;-79
2022/10/16 02:21:14;;;;;;;;;;;;;;;-144.99;100.00;52452.16;5097819;28;19930;-80
2022/10/16 02:23:46;;;;;;;;;;;;;;;-144.99;100.00;52456.25;5089557;28;19931;-79
2022/10/16 02:26:16;;;;;;;;;;;;;;;-144.99;100.00;52427.72;5084159;28;19931;-79
2022/10/16 02:28:46;;;;;;;;;;;;;;;-144.99;100.00;52488.84;5077077;28;19947;-78
2022/10/16 02:31:13;;;;;;;;;;;;;;;-144.99;100.00;52435.88;5083828;28;20406;-79
2022/10/16 02:33:41;;;;;;;;;;;;;;;-144.99;100.00;52476.63;5088644;28;20229;-79
2022/10/16 02:36:08;;;;;;;;;;;;;;;-144.99;100.00;52468.47;5077775;28;20304;-79
2022/10/16 02:38:36;;;;;;;;;;;;;;;-144.99;100.00;52509.25;5080474;28;19928;-75
2022/10/16 02:41:03;;;;;;;;;;;;;;;-144.99;100.00;52444.03;5078350;28;19928;-77
2022/10/16 02:43:29;;;;;;;;;;;;;;;-144.99;100.00;52437.91;5080751;28;19924;-78
2022/10/16 02:45:55;;;;;;;;;;;;;;;-144.99;100.00;52437.91;5082686;28;19934;-78
2022/10/16 02:48:22;;;;;;;;;;;;;;;-144.99;100.00;52497.00;5087222;28;19924;-78
2022/10/16 02:50:48;;;;;;;;;;;;;;;-144.99;100.00;52472.56;5081219;28;19934;-78
2022/10/16 02:53:14;;;;;;;;;;;;;;;-144.99;100.00;52480.72;5090955;28;19932;-78
2022/10/16 02:55:42;;;;;;;;;;;;;;;-144.99;100.00;52460.31;5082090;28;19932;-77
2022/10/16 02:58:09;;;;;;;;;;;;;;;-144.99;100.00;52456.25;5086817;28;19928;-78
2022/10/16 03:00:35;;;;;;;;;;;;;;;-144.99;100.00;52444.03;5078232;28;19924;-78
2022/10/16 03:03:01;;;;;;;;;;;;;;;-144.99;100.00;52464.41;5082089;28;20400;-77
2022/10/16 03:05:27;;;;;;;;;;;;;;;-144.99;100.00;52482.75;5078611;28;19930;-78
2022/10/16 03:07:54;;;;;;;;;;;;;;;-144.99;100.00;52484.78;5079205;28;19928;-76
2022/10/16 03:10:20;;;;;;;;;;;;;;;-144.99;100.00;52460.31;5078573;28;19928;-78
2022/10/16 03:12:48;;;;;;;;;;;;;;;-144.99;100.00;52488.84;5087963;28;19925;-76
2022/10/16 03:15:14;;;;;;;;;;;;;;;-144.99;100.00;52517.41;5074797;28;19928;-79
2022/10/16 03:17:41;;;;;;;;;;;;;;;-144.99;100.00;52480.72;5080515;28;19925;-77
2022/10/16 03:20:07;;;;;;;;;;;;;;;-144.99;100.00;52452.16;5079084;28;19932;-76
2022/10/16 03:22:34;;;;;;;;;;;;;;;-144.99;100.00;52423.63;5098506;28;20014;-76
2022/10/16 03:25:00;;;;;;;;;;;;;;;-144.99;100.00;52472.56;5095711;28;19924;-76
2022/10/16 03:27:26;;;;;;;;;;;;;;;-144.99;100.00;52448.09;5079026;28;19924;-77
2022/10/16 03:29:54;;;;;;;;;;;;;;;-144.99;100.00;52488.84;5085159;28;19924;-77
2022/10/16 03:32:21;;;;;;;;;;;;;;;-144.99;100.00;52462.34;5073094;28;19932;-77
2022/10/16 03:34:47;;;;;;;;;;;;;;;-144.99;100.00;52501.09;5077139;28;20399;-77
2022/10/16 03:37:14;;;;;;;;;;;;;;;-144.99;100.00;52444.03;5081514;28;19928;-79
2022/10/16 03:39:40;;;;;;;;;;;;;;;-144.99;100.00;52511.28;5075750;28;19928;-79
2022/10/16 03:42:06;;;;;;;;;;;;;;;-144.99;100.00;52472.56;5081895;28;19924;-78
2022/10/16 03:44:33;;;;;;;;;;;;;;;-144.99;100.00;52509.25;5074628;28;19979;-76
2022/10/16 03:47:00;;;;;;;;;;;;;;;-144.99;100.00;52460.31;5083971;28;20403;-77
2022/10/16 03:49:27;;;;;;;;;;;;;;;-144.99;100.00;52488.84;5071091;28;20383;-76
2022/10/16 03:51:53;;;;;;;;;;;;;;;-144.99;100.00;52476.63;5085364;28;19924;-77
2022/10/16 03:54:19;;;;;;;;;;;;;;;-144.99;100.00;52456.25;5078966;28;19924;-80
2022/10/16 03:56:46;;;;;;;;;;;;;;;-144.99;100.00;52488.84;5077405;28;20295;-77
2022/10/16 03:59:12;;;;;;;;;;;;;;;-144.99;100.00;52482.75;5080422;28;19924;-77
2022/10/16 04:01:38;;;;;;;;;;;;;;;-144.99;100.00;52466.44;5075579;28;19936;-79
2022/10/16 04:04:06;;;;;;;;;;;;;;;-144.99;100.00;52456.25;5080146;28;19977;-79
2022/10/16 04:06:32;;;;;;;;;;;;;;;-144.99;100.00;52464.41;5081678;28;19924;-79
2022/10/16 04:08:59;;;;;;;;;;;;;;;-144.99;100.00;52476.63;5086035;28;19928;-77
2022/10/16 04:11:25;;;;;;;;;;;;;;;-144.99;100.00;52484.78;5083262;28;19928;-77
2022/10/16 04:13:51;;;;;;;;;;;;;;;-144.99;100.00;52456.25;5089976;28;20310;-78
2022/10/16 04:16:18;;;;;;;;;;;;;;;-144.99;100.00;52484.78;5089490;28;20186;-76
2022/10/16 04:18:44;;;;;;;;;;;;;;;-144.99;100.00;52452.16;5086661;28;19939;-78
2022/10/16 04:21:12;;;;;;;;;;;;;;;-144.99;100.00;52456.25;5085835;28;19924;-75
2022/10/16 04:23:38;;;;;;;;;;;;;;;-144.99;100.00;52448.09;5081828;28;19925;-77
2022/10/16 04:26:05;;;;;;;;;;;;;;;-144.99;100.00;52460.31;5084907;28;19956;-76
2022/10/16 04:28:31;;;;;;;;;;;;;;;-144.99;100.00;52450.13;5081642;28;19924;-77
2022/10/16 04:30:58;;;;;;;;;;;;;;;-144.99;100.00;52464.41;5091136;28;19924;-75
2022/10/16 04:33:24;;;;;;;;;;;;;;;-144.99;100.00;52488.84;5073071;28;19924;-75
2022/10/16 04:35:56;;;;;;;;;;;;;;;-144.99;100.00;52456.25;5083399;28;20181;-76
2022/10/16 04:38:24;;;;;;;;;;;;;;;-144.99;100.00;52460.31;5087917;28;19924;-80
2022/10/16 04:40:50;;;;;;;;;;;;;;;-144.99;100.00;52488.84;5082167;28;19939;-77
2022/10/16 04:43:17;;;;;;;;;;;;;;;-144.99;100.00;52435.88;5081037;28;20106;-77
2022/10/16 04:45:43;;;;;;;;;;;;;;;-144.99;100.00;52472.56;5087485;28;19935;-78
2022/10/16 04:48:09;;;;;;;;;;;;;;;-144.99;100.00;52464.41;5078444;28;20011;-78
2022/10/16 04:50:36;;;;;;;;;;;;;;;-144.99;100.00;52472.56;5083313;28;19963;-77
2022/10/16 04:53:02;;;;;;;;;;;;;;;-144.99;100.00;52497.00;5082508;28;19955;-78
2022/10/16 04:55:30;;;;;;;;;;;;;;;-144.99;100.00;52464.41;5080832;28;19928;-78
2022/10/16 04:57:56;;;;;;;;;;;;;;;-144.99;100.00;52452.16;5086005;28;19925;-77
2022/10/16 05:00:22;;;;;;;;;;;;;;;-144.99;100.00;52435.88;5079128;28;19935;-78
2022/10/16 05:02:50;;;;;;;;;;;;;;;-144.99;100.00;52441.97;5085389;28;19924;-79
2022/10/16 05:05:18;;;;;;;;;;;;;;;-144.99;100.00;52482.75;5080217;28;19932;-80
2022/10/16 05:07:45;;;;;;;;;;;;;;;-144.99;100.00;52460.31;5085028;28;20361;-80
2022/10/16 05:10:11;;;;;;;;;;;;;;;-144.99;100.00;52452.16;5081098;28;19931;-79
2022/10/16 05:12:39;;;;;;;;;;;;;;;-144.99;100.00;52480.72;5085390;28;20379;-80
2022/10/16 05:15:06;;;;;;;;;;;;;;;-144.99;100.00;52480.72;5090238;28;19951;-79
2022/10/16 05:17:32;;;;;;;;;;;;;;;-144.99;100.00;52448.09;5087864;28;19923;-79
2022/10/16 05:19:59;;;;;;;;;;;;;;;-144.99;100.00;52468.47;5091826;28;19927;-78
2022/10/16 05:22:25;;;;;;;;;;;;;;;-144.99;100.00;52464.41;5093310;28;20318;-79
2022/10/16 05:24:52;;;;;;;;;;;;;;;-144.99;100.00;52456.25;5074699;28;20004;-80
2022/10/16 05:27:19;;;;;;;;;;;;;;;-144.99;100.00;52488.84;5081350;28;19924;-80
2022/10/16 05:29:47;;;;;;;;;;;;;;;-144.99;100.00;52474.59;5084997;28;19940;-80
2022/10/16 05:32:14;;;;;;;;;;;;;;;-144.99;100.00;52444.03;5094804;28;19924;-80
2022/10/16 05:34:40;;;;;;;;;;;;;;;-144.99;100.00;52464.41;5089700;28;20402;-78
2022/10/16 05:37:07;;;;;;;;;;;;;;;-144.99;100.00;52484.78;5082280;28;19939;-79
2022/10/16 05:39:33;;;;;;;;;;;;;;;-144.99;100.00;52480.72;5082622;28;19925;-79
2022/10/16 05:41:59;;;;;;;;;;;;;;;-144.99;100.00;52435.88;5082525;28;20024;-79
2022/10/16 05:44:26;;;;;;;;;;;;;;;-144.99;100.00;52478.66;5088188;28;19928;-81
2022/10/16 05:46:53;;;;;;;;;;;;;;;-144.99;100.00;52454.22;5100600;28;19924;-80
2022/10/16 05:49:20;;;;;;;;;;;;;;;-144.99;100.00;52472.56;5080503;28;19936;-79
2022/10/16 05:51:46;;;;;;;;;;;;;;;-144.99;100.00;52439.94;5093487;28;19924;-78
2022/10/16 05:54:13;;;;;;;;;;;;;;;-144.99;100.00;52450.13;5073168;28;19924;-79
2022/10/16 05:56:39;;;;;;;;;;;;;;;-144.99;100.00;52488.84;5081462;28;19924;-76
2022/10/16 05:59:06;;;;;;;;;;;;;;;-144.99;100.00;52464.41;5074680;28;19928;-79
2022/10/16 06:01:32;;;;;;;;;;;;;;;-144.99;100.00;52439.94;5080217;28;19924;-78
2022/10/16 06:04:00;;;;;;;;;;;;;;;-144.99;100.00;52464.41;5086040;28;19924;-77
2022/10/16 06:06:27;;;;;;;;;;;;;;;-144.99;100.00;52472.56;5072870;28;20019;-77
2022/10/16 06:08:54;;;;;;;;;;;;;;;-144.99;100.00;52460.31;5073299;28;19924;-78
2022/10/16 06:11:23;;;;;;;;;;;;;;;-144.99;100.00;52439.94;5076785;28;20034;-78
2022/10/16 06:13:50;;;;;;;;;;;;;;;-144.99;100.00;52509.25;5099389;28;19943;-81
2022/10/16 06:16:16;;;;;;;;;;;;;;;-144.99;100.00;52468.47;5104862;28;19934;-80
2022/10/16 06:18:43;;;;;;;;;;;;;;;-144.99;100.00;52452.16;5081106;28;19931;-75
2022/10/16 06:21:12;;;;;;;;;;;;;;;-144.99;100.00;52444.03;5086219;28;19934;-75
2022/10/16 06:23:38;;;;;;;;;;;;;;;-144.99;100.00;52472.56;5078511;28;19951;-75
2022/10/16 06:26:05;;;;;;;;;;;;;;;-144.99;100.00;52460.31;5083638;28;20384;-75
2022/10/16 06:28:32;;;;;;;;;;;;;;;-144.99;100.00;52423.63;5074557;28;19932;-76
2022/10/16 06:30:59;;;;;;;;;;;;;;;-144.99;100.00;52468.47;5080784;28;19924;-76
2022/10/16 06:33:25;;;;;;;;;;;;;;;-144.99;100.00;52472.56;5080324;28;19943;-76
2022/10/16 06:35:52;;;;;;;;;;;;;;;-144.99;100.00;52419.56;5080467;28;19931;-76
2022/10/16 06:38:20;;;;;;;;;;;;;;;-144.99;100.00;52472.56;5078884;28;20410;-76
2022/10/16 06:40:46;;;;;;;;;;;;;;;-144.99;100.00;52441.97;5083311;28;20007;-78
2022/10/16 06:43:12;;;;;;;;;;;;;;;-144.99;100.00;52423.63;5078066;28;19924;-75
2022/10/16 06:45:39;;;;;;;;;;;;;;;-144.99;100.00;52464.41;5088121;28;19931;-76
2022/10/16 06:48:05;;;;;;;;;;;;;;;-144.99;100.00;52411.41;5081476;28;19932;-76
2022/10/16 06:50:31;;;;;;;;;;;;;;;-144.99;100.00;52439.94;5086819;28;19931;-77
2022/10/16 06:52:58;;;;;;;;;;;;;;;-144.99;100.00;52435.88;5090744;28;19928;-77
2022/10/16 06:55:25;;;;;;;;;;;;;;;-144.99;100.00;52439.94;5078331;28;19924;-78
2022/10/16 06:57:51;;;;;;;;;;;;;;;-144.99;100.00;52435.88;5090396;28;19931;-77
2022/10/16 07:00:18;;;;;;;;;;;;;;;-144.99;100.00;52413.44;5082363;28;19924;-77
2022/10/16 07:02:44;;;;;;;;;;;;;;;-144.99;100.00;52427.72;5084350;28;20122;-77
2022/10/16 07:05:10;;;;;;;;;;;;;;;-144.99;100.00;52441.97;5077009;28;20253;-77
2022/10/16 07:07:37;;;;;;;;;;;;;;;-144.99;100.00;52439.94;5074791;28;20299;-76
2022/10/16 07:10:03;;;;;;;;;;;;;;;-144.99;100.00;52452.16;5080798;28;20391;-78
2022/10/16 07:12:31;;;;;;;;;;;;;;;-144.99;100.00;52431.78;5088417;28;19928;-77
2022/10/16 07:14:57;;;;;;;;;;;;;;;-144.99;100.00;52427.72;5085077;28;19939;-78
2022/10/16 07:17:24;;;;;;;;;;;;;;;-144.99;100.00;52448.09;5087379;28;20410;-77
2022/10/16 07:19:52;;;;;;;;;;;;;;;-144.99;100.00;52427.72;5077347;28;19924;-77
2022/10/16 07:22:19;;;;;;;;;;;;;;;-144.99;100.00;52431.78;5086297;28;19962;-80
2022/10/16 07:24:45;;;;;;;;;;;;;;;-144.99;100.00;52425.66;5084603;28;20038;-77
2022/10/16 07:27:11;;;;;;;;;;;;;;;-144.99;100.00;52448.09;5078571;28;19925;-78
2022/10/16 07:29:40;;;;;;;;;;;;;;;-144.99;98.18;52397.13;5107450;22;19934;-75
2022/10/16 07:32:06;;;;;;;;;;;;;;;-144.99;97.03;52403.25;5071184;28;19985;-75
2022/10/16 07:34:33;;;;;;;;;;;;;;;-144.99;97.61;52407.31;5064453;28;20031;-75
2022/10/16 07:36:59;;;;;;;;;;;;;;;-144.99;98.32;52391.03;5078592;28;20015;-77
2022/10/16 07:39:26;;;;;;;;;;;;;;;-144.99;98.38;52433.81;5076575;28;19924;-77
2022/10/16 07:41:52;;;;;;;;;;;;;;;-144.99;99.02;52444.03;5080241;28;20007;-77
2022/10/16 07:44:18;;;;;;;;;;;;;;;-144.99;97.81;52419.56;5071630;28;20429;-75
2022/10/16 07:46:46;;;;;;;;;;;;;;;-144.99;97.88;52423.63;5071042;28;19931;-73
2022/10/16 07:49:12;;;;;;;;;;;;;;;-144.99;98.84;52439.94;5066035;28;19924;-73
2022/10/16 07:51:39;;;;;;;;;;;;;;;-144.99;99.22;52370.63;5073089;28;19929;-73
2022/10/16 07:54:05;;;;;;;;;;;;;;;-144.99;97.69;52415.47;5065833;28;19925;-73
2022/10/16 07:56:32;;;;;;;;;;;;;;;-144.99;95.37;52362.50;5062209;28;19931;-72
2022/10/16 07:58:58;;;;;;;;;;;;;;;-144.99;93.69;52415.47;5068138;28;19928;-73
2022/10/16 08:01:25;;;;;;;;;;;;;;;-144.99;91.26;52403.25;5066178;28;20311;-73
2022/10/16 08:03:53;;;;;;;;;;;;;;;-144.99;90.02;52427.72;5074028;28;19928;-73
2022/10/16 08:06:20;;;;;;;;;;;;;;;-144.99;90.10;52419.56;5068380;28;19924;-72
2022/10/16 08:08:47;;;;;;;;;;;;;;;-144.99;90.76;52427.72;5067775;28;19932;-73
2022/10/16 08:11:14;;;;;;;;;;;;;;;-144.99;91.14;52380.84;5059460;28;19925;-74
2022/10/16 08:13:40;;;;;;;;;;;;;;;-144.99;90.98;52374.72;5071482;28;19928;-74
2022/10/16 08:16:09;;;;;;;;;;;;;;;-144.99;89.63;52362.50;5072028;28;19930;-73
2022/10/16 08:18:36;;;;;;;;;;;;;;;-144.99;86.49;52342.09;5067790;28;19925;-74
2022/10/16 08:21:04;;;;;;;;;;;;;;;-144.99;84.24;52376.75;5064627;28;19928;-74
2022/10/16 08:23:31;;;;;;;;;;;;;;;-144.99;80.93;52366.56;5068783;28;19975;-74
2022/10/16 08:26:02;;;;;;;;;;;;;;;-144.99;82.04;52382.88;5070861;28;20045;-73
2022/10/16 08:28:28;;;;;;;;;;;;;;;-144.99;83.60;52437.91;5069633;28;19932;-73
2022/10/16 08:30:56;;;;;;;;;;;;;;;-144.99;84.17;52399.19;5068964;28;19940;-74
2022/10/16 08:33:22;;;;;;;;;;;;;;;-144.99;84.56;52391.03;5071117;28;19984;-74
2022/10/16 08:35:53;;;;;;;;;;;;;;;-144.99;85.77;52362.50;5082078;28;20326;-73
2022/10/16 08:38:21;;;;;;;;;;;;;;;-144.99;83.39;52370.63;5080205;28;19963;-72
2022/10/16 08:40:47;;;;;;;;;;;;;;;-144.99;80.16;52354.34;5089325;28;19925;-74
2022/10/16 08:43:31;;;;;;;;;;;;;;;-144.99;78.49;52354.34;5096470;28;19912;-75
2022/10/16 08:46:06;;;;;;;;;;;;;;;-144.99;76.56;52329.88;5097700;28;19936;-74
2022/10/16 08:48:36;;;;;;;;;;;;;;;-144.99;74.78;52407.31;5094399;28;19948;-76
2022/10/16 08:51:04;;;;;;;;;;;;;;;-144.99;73.68;52313.56;5096581;28;19976;-74
2022/10/16 08:53:38;;;;;;;;;;;;;;;-144.99;73.13;52289.13;5092407;28;20035;-74
2022/10/16 08:56:05;;;;;;;;;;;;;;;-144.99;71.42;52338.03;5088512;28;19913;-74
2022/10/16 08:58:32;;;;;;;;;;;;;;;-144.99;71.30;52342.09;5094630;28;19924;-73
2022/10/16 09:00:59;;;;;;;;;;;;;;;-144.99;71.81;52329.88;5094026;28;19919;-75
2022/10/16 09:03:32;;;;;;;;;;;;;;;-144.99;72.70;52374.72;5096001;28;19922;-74
2022/10/16 09:06:04;;;;;;;;;;;;;;;-144.99;73.71;52382.88;5078335;28;20016;-75
2022/10/16 09:08:36;;;;;;;;;;;;;;;-144.99;74.53;52364.53;5092460;28;19952;-72
2022/10/16 09:11:08;;;;;;;;;;;;;;;-144.99;73.25;52325.81;5097993;28;19940;-72
2022/10/16 09:13:41;;;;;;;;;;;;;;;-144.99;72.30;52305.41;5098989;28;19939;-72
2022/10/16 09:16:15;;;;;;;;;;;;;;;-144.99;69.63;52329.88;5095123;28;19998;-74
2022/10/16 09:18:44;;;;;;;;;;;;;;;-144.99;68.38;52325.81;5091517;28;19923;-73
2022/10/16 09:21:14;;;;;;;;;;;;;;;-144.99;68.05;52317.66;5095900;28;19912;-73
2022/10/16 09:23:42;;;;;;;;;;;;;;;-144.99;65.15;52313.56;5085299;28;19912;-73
2022/10/16 09:26:12;;;;;;;;;;;;;;;-144.99;64.82;52354.34;5093617;28;19980;-74
2022/10/16 09:28:38;;;;;;;;;;;;;;;-144.99;63.40;52309.50;5081709;28;19924;-73
2022/10/16 09:31:05;;;;;;;;;;;;;;;-144.99;62.85;52289.13;5078987;28;20313;-73
2022/10/16 09:33:34;;;;;;;;;;;;;;;-144.99;60.21;52313.56;5077543;28;19931;-73
2022/10/16 09:36:00;;;;;;;;;;;;;;;-144.99;60.13;52223.88;5079636;28;19939;-72
2022/10/16 09:38:28;;;;;;;;;;;;;;;-144.99;58.69;52262.63;5075099;28;19935;-73
2022/10/16 09:40:57;;;;;;;;;;;;;;;-144.99;57.22;52260.56;5074030;28;19947;-73
2022/10/16 09:43:27;;;;;;;;;;;;;;;-144.99;55.77;52252.44;5064580;28;19925;-73
2022/10/16 09:45:58;;;;;;;;;;;;;;;-144.99;55.39;52217.78;5065923;28;19971;-72
2022/10/16 09:48:25;;;;;;;;;;;;;;;-144.99;54.30;52232.03;5071280;28;19924;-73
2022/10/16 09:50:59;;;;;;;;;;;;;;;-144.99;53.12;52287.06;5070932;28;19928;-73
2022/10/16 09:53:27;;;;;;;;;;;;;;;-144.99;54.54;52289.13;5069473;28;19924;-74
2022/10/16 09:55:54;;;;;;;;;;;;;;;-144.99;54.55;52283.00;5068774;28;19924;-73
2022/10/16 09:58:24;;;;;;;;;;;;;;;-144.99;54.83;52291.16;5064255;28;19935;-75
2022/10/16 10:00:51;;;;;;;;;;;;;;;-144.99;54.90;52317.66;5068665;28;19935;-74
2022/10/16 10:03:28;;;;;;;;;;;;;;;-144.99;57.25;52264.66;5066881;28;19924;-73
2022/10/16 10:05:54;;;;;;;;;;;;;;;-144.99;57.10;52256.50;5065657;28;20441;-73
2022/10/16 10:08:20;;;;;;;;;;;;;;;-144.99;56.78;52280.97;5071400;28;19928;-74
2022/10/16 10:10:49;;;;;;;;;;;;;;;-144.99;56.57;52215.75;5073156;28;19931;-74
2022/10/16 10:13:18;;;;;;;;;;;;;;;-144.99;53.95;52215.75;5070613;28;19956;-74
2022/10/16 10:15:46;;;;;;;;;;;;;;;-144.99;52.97;52215.75;5074773;28;19931;-72
2022/10/16 10:18:17;;;;;;;;;;;;;;;-144.99;51.63;52138.28;5072859;28;19924;-74
2022/10/16 10:20:44;;;;;;;;;;;;;;;-144.99;50.80;52268.72;5075504;28;19946;-74
2022/10/16 10:23:21;;;;;;;;;;;;;;;-144.99;50.74;52276.88;5075314;28;19939;-76
2022/10/16 10:25:53;;;;;;;;;;;;;;;-144.99;52.96;52285.03;5072235;28;19924;-74
2022/10/16 10:28:36;;;;;;;;;;;;;;;-144.99;54.96;52264.66;5057126;28;20049;-74
2022/10/16 10:31:07;;;;;;;;;;;;;;;-144.99;54.93;52299.31;5057992;28;19924;-74
2022/10/16 10:33:38;;;;;;;;;;;;;;;-144.99;53.66;52268.72;5070808;28;19986;-77
2022/10/16 10:36:26;;;;;;;;;;;;;;;-144.99;53.25;52179.06;5071371;28;19970;-75
2022/10/16 10:38:56;;;;;;;;;;;;;;;-144.99;51.14;52174.97;5059174;28;19928;-76
2022/10/16 10:41:37;;;;;;;;;;;;;;;-144.99;49.83;52219.81;5073049;28;19960;-76
2022/10/16 10:44:08;;;;;;;;;;;;;;;-144.99;48.97;52203.50;5073762;28;20246;-77
2022/10/16 10:46:39;;;;;;;;;;;;;;;-144.99;48.58;52130.13;5070978;28;19931;-77
2022/10/16 10:49:21;;;;;;;;;;;;;;;-144.99;46.35;52064.91;5068437;28;20398;-77
2022/10/16 10:51:55;;;;;;;;;;;;;;;-144.99;44.81;52083.25;5065217;28;19937;-76
2022/10/16 10:54:23;;;;;;;;;;;;;;;-144.99;44.27;52056.78;5073158;28;19932;-78
2022/10/16 10:56:56;;;;;;;;;;;;;;;-144.99;43.55;52064.91;5077042;28;19939;-78
2022/10/16 10:59:33;;;;;;;;;;;;;;;-144.99;42.77;52069.00;5073869;28;19981;-77
2022/10/16 11:02:05;;;;;;;;;;;;;;;-144.99;41.95;52060.84;5073163;28;19925;-77
2022/10/16 11:04:40;;;;;;;;;;;;;;;-144.99;41.67;52052.69;5081843;28;19928;-78
2022/10/16 11:07:11;;;;;;;;;;;;;;;-144.99;41.93;52069.00;5076068;28;20008;-76
2022/10/16 11:09:40;;;;;;;;;;;;;;;-144.99;41.98;52077.16;5070395;28;20384;-76
2022/10/16 11:12:10;;;;;;;;;;;;;;;-144.99;41.85;52050.66;5073949;28;19924;-76
2022/10/16 11:14:40;;;;;;;;;;;;;;;-144.99;42.00;52248.34;5074850;28;20311;-77
2022/10/16 11:17:09;;;;;;;;;;;;;;;-144.99;42.28;52254.47;5076601;28;19950;-78
2022/10/16 11:19:38;;;;;;;;;;;;;;;-144.99;43.92;52313.56;5060133;28;19925;-76
2022/10/16 11:22:08;;;;;;;;;;;;;;;-144.99;46.08;52321.72;5077387;28;20027;-78
2022/10/16 11:24:38;;;;;;;;;;;;;;;-144.99;47.24;52266.69;5075417;28;20003;-78
2022/10/16 11:27:08;;;;;;;;;;;;;;;-144.99;48.79;52366.56;5078637;28;19925;-76
2022/10/16 11:29:36;;;;;;;;;;;;;;;-144.99;50.52;52362.50;5076863;28;19925;-75
2022/10/16 11:32:06;;;;;;;;;;;;;;;-144.99;50.08;52166.81;5079540;28;19935;-77
2022/10/16 11:34:36;;;;;;;;;;;;;;;-144.99;47.21;52236.13;5082325;28;19928;-78
2022/10/16 11:37:06;;;;;;;;;;;;;;;-144.99;47.92;52307.47;5075469;28;19924;-76
2022/10/16 11:39:33;;;;;;;;;;;;;;;-144.99;46.88;52350.25;5067918;28;19925;-77
2022/10/16 11:42:03;;;;;;;;;;;;;;;-144.99;48.33;52340.06;5074230;28;19924;-76
2022/10/16 11:44:35;;;;;;;;;;;;;;;-144.99;50.55;52358.41;5078314;28;19988;-76
2022/10/16 11:47:08;;;;;;;;;;;;;;;-144.99;51.88;52356.38;5087607;28;19928;-77
2022/10/16 11:49:37;;;;;;;;;;;;;;;-144.99;52.68;52411.41;4379021;28;10000724;-76
2022/10/16 11:52:08;;;;;;;;;;;;;;;-144.99;52.64;52458.28;5081558;28;19975;-76
2022/10/16 11:54:40;;;;;;;;;;;;;;;-144.99;52.82;52427.72;5081870;28;20015;-76
2022/10/16 11:57:17;;;;;;;;;;;;;;;-144.99;52.81;52366.56;5080830;28;19928;-77
2022/10/16 11:59:46;;;;;;;;;;;;;;;-144.99;51.14;52378.78;5086847;28;20691;-77
2022/10/16 12:02:26;;;;;;;;;;;;;;;-144.99;51.58;52431.78;5085573;28;20517;-77
2022/10/16 12:05:01;;;;;;;;;;;;;;;-144.99;51.88;52356.38;5087442;28;19934;-77
2022/10/16 12:07:33;;;;;;;;;;;;;;;-144.99;52.07;52374.72;5078860;28;19931;-76
2022/10/16 12:10:10;;;;;;;;;;;;;;;-144.99;52.34;52407.31;5083957;28;20012;-76
2022/10/16 12:12:39;;;;;;;;;;;;;;;-144.99;52.55;52305.41;5077648;28;19928;-77
2022/10/16 12:15:19;;;;;;;;;;;;;;;-144.99;51.02;52423.63;5085476;28;19929;-75
2022/10/16 12:17:46;;;;;;;;;;;;;;;-144.99;50.62;52252.44;5082330;28;20407;-76
2022/10/16 12:20:26;;;;;;;;;;;;;;;-144.99;47.98;52179.06;5076831;28;19924;-76
2022/10/16 12:22:55;;;;;;;;;;;;;;;-144.99;45.10;52177.00;5077171;28;19982;-77
2022/10/16 12:25:23;;;;;;;;;;;;;;;-144.99;44.29;52321.72;5077270;28;19936;-78